createdAt,value
2019-03-26T00:00:35.435Z,101018.84
2019-03-26T00:01:08.528Z,101019.74
2019-03-26T00:01:39.754Z,101019.74
2019-03-26T00:02:10.930Z,101023.23
2019-03-26T00:02:42.129Z,101029.72
2019-03-26T00:03:14.269Z,101037.97
2019-03-26T00:03:45.460Z,101033.12
2019-03-26T00:04:16.613Z,101032.38
2019-03-26T00:04:47.819Z,101033.62
2019-03-26T00:05:18.959Z,101037.11
2019-03-26T00:05:50.172Z,101036.67
2019-03-26T00:06:21.315Z,101032.22
2019-03-26T00:06:52.613Z,101035.61
2019-03-26T00:07:24.011Z,101030.76
2019-03-26T00:07:55.223Z,101031.06
2019-03-26T00:08:26.367Z,101031.06
2019-03-26T00:08:57.567Z,101034.45
2019-03-26T00:09:28.736Z,101037.55
2019-03-26T00:09:59.931Z,101032.76
2019-03-26T00:10:31.071Z,101043.14
2019-03-26T00:11:02.678Z,101043.97
2019-03-26T00:11:33.961Z,101039.18
2019-03-26T00:12:05.316Z,101039.18
2019-03-26T00:12:36.581Z,101025.18
2019-03-26T00:13:07.767Z,101025.18
2019-03-26T00:13:38.932Z,101042.17
2019-03-26T00:14:10.134Z,101048.27
2019-03-26T00:14:41.307Z,101042.17
2019-03-26T00:15:12.493Z,101040.48
2019-03-26T00:15:43.663Z,101040.94
2019-03-26T00:16:14.904Z,101030.50
2019-03-26T00:16:46.139Z,101037.88
2019-03-26T00:17:17.391Z,101038.78
2019-03-26T00:17:48.597Z,101040.94
2019-03-26T00:18:19.776Z,101040.08
2019-03-26T00:18:50.997Z,101040.08
2019-03-26T00:19:23.153Z,101039.64
2019-03-26T00:19:54.359Z,101039.34
2019-03-26T00:20:25.510Z,101040.64
2019-03-26T00:20:56.969Z,101040.14
2019-03-26T00:21:28.168Z,101039.64
2019-03-26T00:21:59.382Z,101034.89
2019-03-26T00:22:30.540Z,101032.29
2019-03-26T00:23:01.758Z,101031.39
2019-03-26T00:23:32.898Z,101035.75
2019-03-26T00:24:04.106Z,101027.97
2019-03-26T00:24:35.242Z,101028.40
2019-03-26T00:25:06.462Z,101020.61
2019-03-26T00:25:38.614Z,101020.61
2019-03-26T00:26:09.827Z,101030.16
2019-03-26T00:26:40.981Z,101034.05
2019-03-26T00:27:12.164Z,101029.27
2019-03-26T00:27:43.358Z,101025.38
2019-03-26T00:28:14.556Z,101025.38
2019-03-26T00:28:45.724Z,101027.97
2019-03-26T00:29:16.956Z,101031.46
2019-03-26T00:29:48.106Z,101025.38
2019-03-26T00:30:19.345Z,101024.57
2019-03-26T00:30:50.494Z,101025.47
2019-03-26T00:31:21.689Z,101019.87
2019-03-26T00:31:52.843Z,101023.37
2019-03-26T00:32:24.208Z,101021.17
2019-03-26T00:32:55.378Z,101027.67
2019-03-26T00:33:36.383Z,101024.67
2019-03-26T00:33:59.621Z,101026.86
2019-03-26T00:34:30.833Z,101022.14
2019-03-26T00:35:01.991Z,101021.73
2019-03-26T00:35:33.179Z,101025.33
2019-03-26T00:36:04.325Z,101019.74
2019-03-26T00:36:35.542Z,101025.33
2019-03-26T00:37:06.701Z,101018.75
2019-03-26T00:37:38.905Z,101018.75
2019-03-26T00:38:10.082Z,101018.75
2019-03-26T00:38:41.425Z,101017.45
2019-03-26T00:39:12.867Z,101013.95
2019-03-26T00:39:44.102Z,101011.36
2019-03-26T00:40:15.342Z,101021.67
2019-03-26T00:40:46.612Z,101022.64
2019-03-26T00:41:17.882Z,101021.34
2019-03-26T00:41:49.116Z,101017.05
2019-03-26T00:42:20.365Z,101023.94
2019-03-26T00:42:51.593Z,101020.84
2019-03-26T00:43:22.793Z,101023.04
2019-03-26T00:43:53.959Z,101023.04
2019-03-26T00:44:25.167Z,101022.64
2019-03-26T00:44:56.531Z,101032.72
2019-03-26T00:45:27.689Z,101032.72
2019-03-26T00:45:58.884Z,101018.84
2019-03-26T00:46:30.153Z,101024.59
2019-03-26T00:47:01.328Z,101031.48
2019-03-26T00:47:32.545Z,101010.63
2019-03-26T00:48:03.692Z,101010.63
2019-03-26T00:48:34.887Z,101034.52
2019-03-26T00:49:06.054Z,101025.17
2019-03-26T00:49:37.256Z,101027.53
2019-03-26T00:50:08.436Z,101029.72
2019-03-26T00:50:39.742Z,101029.72
2019-03-26T00:51:10.907Z,101028.73
2019-03-26T00:51:42.112Z,101031.02
2019-03-26T00:52:13.280Z,101026.23
2019-03-26T00:52:44.498Z,101023.81
2019-03-26T00:53:15.772Z,101045.59
2019-03-26T00:53:46.960Z,101036.11
2019-03-26T00:54:18.118Z,101056.38
2019-03-26T00:54:49.322Z,101056.38
2019-03-26T00:55:22.741Z,101048.19
2019-03-26T00:55:53.632Z,101035.61
2019-03-26T00:56:24.807Z,101048.09
2019-03-26T00:56:56.007Z,101048.09
2019-03-26T00:57:27.158Z,101033.92
2019-03-26T00:58:01.405Z,101036.52
2019-03-26T00:58:31.430Z,101054.78
2019-03-26T00:59:02.614Z,101037.91
2019-03-26T00:59:33.795Z,101047.06
2019-03-26T01:00:06.073Z,101041.86
2019-03-26T01:00:41.074Z,101040.17
2019-03-26T01:01:12.233Z,101042.77
2019-03-26T01:01:43.417Z,101042.77
2019-03-26T01:02:14.669Z,101040.67
2019-03-26T01:02:45.881Z,101035.88
2019-03-26T01:03:17.058Z,101035.88
2019-03-26T01:03:48.262Z,101031.59
2019-03-26T01:04:32.125Z,101051.55
2019-03-26T01:04:53.662Z,101051.55
2019-03-26T01:05:24.847Z,101048.05
2019-03-26T01:05:56.094Z,101048.05
2019-03-26T01:06:27.310Z,101052.84
2019-03-26T01:06:58.491Z,101041.54
2019-03-26T01:07:29.680Z,101044.06
2019-03-26T01:08:01.888Z,101033.75
2019-03-26T01:08:33.088Z,101033.75
2019-03-26T01:09:04.951Z,101045.56
2019-03-26T01:09:36.162Z,101054.64
2019-03-26T01:10:13.002Z,101054.64
2019-03-26T01:10:44.207Z,101059.00
2019-03-26T01:11:15.365Z,101053.75
2019-03-26T01:11:46.620Z,101056.91
2019-03-26T01:12:17.784Z,101060.00
2019-03-26T01:12:48.984Z,101060.00
2019-03-26T01:13:20.141Z,101036.02
2019-03-26T01:13:51.344Z,101061.30
2019-03-26T01:14:22.514Z,101040.50
2019-03-26T01:14:53.702Z,101054.47
2019-03-26T01:15:24.847Z,101054.97
2019-03-26T01:15:56.032Z,101054.56
2019-03-26T01:16:27.230Z,101053.27
2019-03-26T01:16:59.456Z,101035.48
2019-03-26T01:17:30.687Z,101056.43
2019-03-26T01:18:01.925Z,101056.43
2019-03-26T01:18:33.139Z,101057.42
2019-03-26T01:19:04.332Z,101056.53
2019-03-26T01:19:35.558Z,101065.31
2019-03-26T01:20:06.907Z,101058.72
2019-03-26T01:20:38.140Z,101058.72
2019-03-26T01:21:09.370Z,101060.19
2019-03-26T01:21:40.589Z,101058.82
2019-03-26T01:22:12.119Z,101050.60
2019-03-26T01:22:43.335Z,101061.88
2019-03-26T01:23:14.549Z,101065.38
2019-03-26T01:23:45.763Z,101061.48
2019-03-26T01:24:16.944Z,101055.98
2019-03-26T01:24:48.182Z,101057.69
2019-03-26T01:25:19.412Z,101064.67
2019-03-26T01:25:50.655Z,101058.65
2019-03-26T01:26:21.880Z,101055.66
2019-03-26T01:26:53.101Z,101053.05
2019-03-26T01:27:24.341Z,101047.96
2019-03-26T01:27:55.941Z,101047.96
2019-03-26T01:28:27.181Z,101053.25
2019-03-26T01:28:58.369Z,101047.22
2019-03-26T01:29:29.508Z,101052.52
2019-03-26T01:30:00.717Z,101053.91
2019-03-26T01:30:32.869Z,101059.17
2019-03-26T01:31:04.077Z,101050.27
2019-03-26T01:31:35.230Z,101050.27
2019-03-26T01:32:06.443Z,101052.12
2019-03-26T01:32:37.599Z,101052.12
2019-03-26T01:33:08.813Z,101054.33
2019-03-26T01:33:40.050Z,101053.09
2019-03-26T01:34:11.784Z,101060.08
2019-03-26T01:34:46.152Z,101053.69
2019-03-26T01:35:16.030Z,101054.18
2019-03-26T01:35:47.188Z,101056.38
2019-03-26T01:36:18.401Z,101050.34
2019-03-26T01:36:49.565Z,101052.05
2019-03-26T01:37:20.784Z,101054.74
2019-03-26T01:37:51.965Z,101031.45
2019-03-26T01:38:23.488Z,101031.45
2019-03-26T01:38:54.661Z,101053.60
2019-03-26T01:39:25.868Z,101046.70
2019-03-26T01:39:57.025Z,101049.70
2019-03-26T01:40:28.226Z,101052.89
2019-03-26T01:40:59.377Z,101049.47
2019-03-26T01:41:30.658Z,101048.59
2019-03-26T01:42:01.847Z,101045.26
2019-03-26T01:42:33.044Z,101045.26
2019-03-26T01:43:04.202Z,101049.16
2019-03-26T01:43:35.502Z,101049.25
2019-03-26T01:44:06.679Z,101049.25
2019-03-26T01:44:37.922Z,101047.12
2019-03-26T01:45:09.559Z,101047.12
2019-03-26T01:45:40.804Z,101055.91
2019-03-26T01:46:11.969Z,101043.72
2019-03-26T01:46:43.152Z,101032.52
2019-03-26T01:47:14.318Z,101032.52
2019-03-26T01:47:45.475Z,101047.31
2019-03-26T01:48:16.676Z,101045.11
2019-03-26T01:48:47.861Z,101045.11
2019-03-26T01:49:19.046Z,101046.91
2019-03-26T01:49:50.226Z,101046.81
2019-03-26T01:50:21.411Z,101053.41
2019-03-26T01:50:52.585Z,101048.61
2019-03-26T01:51:23.761Z,101051.61
2019-03-26T01:51:54.951Z,101048.11
2019-03-26T01:52:26.427Z,101045.61
2019-03-26T01:52:57.610Z,101030.88
2019-03-26T01:53:28.791Z,101046.01
2019-03-26T01:54:00.084Z,101034.31
2019-03-26T01:54:31.265Z,101049.57
2019-03-26T01:55:04.951Z,101049.57
2019-03-26T01:55:36.180Z,101050.47
2019-03-26T01:56:08.374Z,101048.27
2019-03-26T01:56:39.568Z,101048.27
2019-03-26T01:57:10.761Z,101046.07
2019-03-26T01:57:41.957Z,101045.17
2019-03-26T01:58:13.185Z,101045.17
2019-03-26T01:58:44.375Z,101049.66
2019-03-26T01:59:15.562Z,101050.06
2019-03-26T01:59:46.755Z,101043.47
2019-03-26T02:00:17.991Z,101043.47
2019-03-26T02:00:49.250Z,101042.17
2019-03-26T02:01:20.578Z,101042.17
2019-03-26T02:01:51.852Z,101047.71
2019-03-26T02:02:23.086Z,101047.71
2019-03-26T02:02:54.319Z,101042.02
2019-03-26T02:03:25.547Z,101026.02
2019-03-26T02:03:56.978Z,101041.61
2019-03-26T02:04:28.266Z,101044.31
2019-03-26T02:05:00.583Z,101042.11
2019-03-26T02:05:32.074Z,101039.12
2019-03-26T02:06:03.229Z,101036.92
2019-03-26T02:06:34.429Z,101039.12
2019-03-26T02:07:05.567Z,101024.78
2019-03-26T02:07:38.935Z,101036.92
2019-03-26T02:08:09.829Z,101034.72
2019-03-26T02:08:41.039Z,101034.72
2019-03-26T02:09:13.202Z,101034.31
2019-03-26T02:09:44.428Z,101028.28
2019-03-26T02:10:15.591Z,101037.37
2019-03-26T02:10:46.820Z,101037.37
2019-03-26T02:11:17.983Z,101033.92
2019-03-26T02:11:49.169Z,101033.92
2019-03-26T02:12:20.313Z,101029.52
2019-03-26T02:12:51.533Z,101034.63
2019-03-26T02:13:22.757Z,101034.63
2019-03-26T02:13:54.189Z,101037.06
2019-03-26T02:14:25.355Z,101034.63
2019-03-26T02:14:56.573Z,101034.97
2019-03-26T02:15:29.507Z,101034.97
2019-03-26T02:16:00.725Z,101034.97
2019-03-26T02:16:31.891Z,101036.97
2019-03-26T02:17:03.088Z,101033.97
2019-03-26T02:17:34.268Z,101032.17
2019-03-26T02:18:05.419Z,101030.88
2019-03-26T02:18:36.562Z,101032.67
2019-03-26T02:19:07.747Z,101033.02
2019-03-26T02:19:38.931Z,101033.02
2019-03-26T02:20:10.074Z,101029.77
2019-03-26T02:20:41.278Z,101032.82
2019-03-26T02:21:13.743Z,101033.66
2019-03-26T02:21:45.049Z,101034.46
2019-03-26T02:22:16.224Z,101037.45
2019-03-26T02:22:47.419Z,101040.45
2019-03-26T02:23:18.616Z,101031.27
2019-03-26T02:23:49.810Z,101033.47
2019-03-26T02:24:20.957Z,101032.56
2019-03-26T02:24:52.152Z,101034.20
2019-03-26T02:25:23.289Z,101031.61
2019-03-26T02:25:54.515Z,101029.81
2019-03-26T02:26:25.753Z,101029.31
2019-03-26T02:26:57.120Z,101023.22
2019-03-26T02:27:28.274Z,101020.97
2019-03-26T02:28:00.468Z,101019.77
2019-03-26T02:28:31.636Z,101023.56
2019-03-26T02:29:02.841Z,101023.47
2019-03-26T02:29:35.020Z,101023.47
2019-03-26T02:30:06.230Z,101024.77
2019-03-26T02:30:37.482Z,101021.70
2019-03-26T02:31:08.719Z,101015.12
2019-03-26T02:31:39.973Z,101022.02
2019-03-26T02:32:11.168Z,101012.52
2019-03-26T02:32:42.314Z,101020.61
2019-03-26T02:33:13.534Z,101022.66
2019-03-26T02:33:44.724Z,101022.66
2019-03-26T02:34:15.926Z,101017.86
2019-03-26T02:34:47.112Z,101019.16
2019-03-26T02:35:19.332Z,101013.87
2019-03-26T02:35:50.753Z,101022.55
2019-03-26T02:36:21.927Z,101023.85
2019-03-26T02:36:53.122Z,101018.20
2019-03-26T02:37:24.293Z,101018.20
2019-03-26T02:37:55.481Z,101013.00
2019-03-26T02:38:26.665Z,101015.11
2019-03-26T02:38:57.828Z,101017.20
2019-03-26T02:39:29.014Z,101012.41
2019-03-26T02:40:00.671Z,101018.00
2019-03-26T02:40:31.970Z,101020.20
2019-03-26T02:41:03.165Z,101012.81
2019-03-26T02:41:37.792Z,101013.00
2019-03-26T02:42:07.600Z,101009.91
2019-03-26T02:42:38.792Z,100999.81
2019-03-26T02:43:11.088Z,101000.07
2019-03-26T02:43:42.283Z,101005.52
2019-03-26T02:44:13.506Z,101005.52
2019-03-26T02:44:44.811Z,101006.42
2019-03-26T02:45:16.006Z,100981.88
2019-03-26T02:45:47.168Z,101005.12
2019-03-26T02:46:18.374Z,101003.33
2019-03-26T02:46:49.531Z,100997.88
2019-03-26T02:47:21.037Z,100997.88
2019-03-26T02:47:53.466Z,100998.21
2019-03-26T02:48:24.636Z,100998.21
2019-03-26T02:48:55.789Z,100998.21
2019-03-26T02:49:27.107Z,100999.91
2019-03-26T02:49:58.393Z,101004.61
2019-03-26T02:50:29.615Z,101000.62
2019-03-26T02:51:00.791Z,101002.41
2019-03-26T02:51:32.011Z,101004.51
2019-03-26T02:52:03.177Z,101004.51
2019-03-26T02:52:35.359Z,100999.41
2019-03-26T02:53:08.659Z,101000.22
2019-03-26T02:53:39.643Z,101000.22
2019-03-26T02:54:10.899Z,101001.11
2019-03-26T02:54:42.123Z,101002.02
2019-03-26T02:55:13.329Z,100984.12
2019-03-26T02:55:44.534Z,101002.11
2019-03-26T02:56:15.740Z,100998.21
2019-03-26T02:56:46.908Z,100995.62
2019-03-26T02:57:18.122Z,100990.33
2019-03-26T02:57:49.275Z,100990.33
2019-03-26T02:58:20.482Z,100990.23
2019-03-26T02:58:51.639Z,100988.88
2019-03-26T02:59:22.868Z,100988.88
2019-03-26T02:59:54.042Z,100986.18
2019-03-26T03:00:25.238Z,100990.08
2019-03-26T03:00:56.408Z,100991.38
2019-03-26T03:01:27.587Z,100992.66
2019-03-26T03:01:58.783Z,100992.17
2019-03-26T03:02:29.988Z,100987.81
2019-03-26T03:03:01.155Z,100996.90
2019-03-26T03:03:32.354Z,101000.30
2019-03-26T03:04:03.501Z,100999.40
2019-03-26T03:04:34.700Z,100998.00
2019-03-26T03:05:05.874Z,101001.09
2019-03-26T03:05:37.083Z,101000.20
2019-03-26T03:06:08.539Z,101001.09
2019-03-26T03:06:39.745Z,101000.70
2019-03-26T03:07:10.949Z,101000.70
2019-03-26T03:07:42.168Z,101000.94
2019-03-26T03:08:13.331Z,101000.94
2019-03-26T03:08:45.537Z,101000.84
2019-03-26T03:09:16.734Z,101000.84
2019-03-26T03:09:47.999Z,101005.12
2019-03-26T03:10:19.187Z,101001.23
2019-03-26T03:10:50.437Z,100995.25
2019-03-26T03:11:21.618Z,101003.53
2019-03-26T03:11:52.845Z,101005.53
2019-03-26T03:12:25.074Z,101005.53
2019-03-26T03:12:56.393Z,101001.23
2019-03-26T03:13:28.548Z,100999.54
2019-03-26T03:13:59.741Z,100996.94
2019-03-26T03:14:30.909Z,101004.83
2019-03-26T03:15:03.902Z,100997.04
2019-03-26T03:15:35.183Z,100996.05
2019-03-26T03:16:06.361Z,100997.74
2019-03-26T03:16:37.557Z,101000.77
2019-03-26T03:17:08.736Z,101002.87
2019-03-26T03:17:39.932Z,101002.87
2019-03-26T03:18:11.106Z,101009.27
2019-03-26T03:18:42.274Z,101005.37
2019-03-26T03:19:15.924Z,100998.38
2019-03-26T03:19:46.567Z,101002.27
2019-03-26T03:20:17.726Z,101008.30
2019-03-26T03:20:48.986Z,100998.72
2019-03-26T03:21:20.161Z,101003.11
2019-03-26T03:21:52.366Z,101003.11
2019-03-26T03:22:23.590Z,100997.18
2019-03-26T03:22:54.768Z,100999.87
2019-03-26T03:23:26.397Z,101003.77
2019-03-26T03:23:57.608Z,100999.78
2019-03-26T03:24:28.790Z,100997.18
2019-03-26T03:24:59.969Z,100997.68
2019-03-26T03:25:31.284Z,100997.68
2019-03-26T03:26:02.476Z,100992.89
2019-03-26T03:26:33.629Z,100995.09
2019-03-26T03:27:04.845Z,100991.19
2019-03-26T03:27:36.083Z,100993.39
2019-03-26T03:28:07.284Z,101002.07
2019-03-26T03:28:38.428Z,100995.58
2019-03-26T03:29:09.640Z,100997.68
2019-03-26T03:29:40.821Z,100998.98
2019-03-26T03:30:12.892Z,100991.49
2019-03-26T03:30:44.085Z,100991.49
2019-03-26T03:31:15.433Z,101001.47
2019-03-26T03:31:46.794Z,101000.98
2019-03-26T03:32:18.086Z,101002.21
2019-03-26T03:32:49.457Z,100997.26
2019-03-26T03:33:20.763Z,100995.36
2019-03-26T03:33:51.997Z,101000.05
2019-03-26T03:34:23.467Z,100998.59
2019-03-26T03:34:54.802Z,100999.89
2019-03-26T03:35:26.028Z,100996.00
2019-03-26T03:35:57.244Z,100995.91
2019-03-26T03:36:28.453Z,100999.09
2019-03-26T03:36:59.670Z,100999.09
2019-03-26T03:37:30.961Z,100999.39
2019-03-26T03:38:02.215Z,100994.61
2019-03-26T03:38:33.367Z,101000.30
2019-03-26T03:39:05.880Z,100999.00
2019-03-26T03:39:37.234Z,101002.98
2019-03-26T03:40:08.422Z,100998.50
2019-03-26T03:40:39.581Z,100995.04
2019-03-26T03:41:10.793Z,100996.23
2019-03-26T03:41:41.955Z,100999.13
2019-03-26T03:42:13.256Z,100981.78
2019-03-26T03:42:44.435Z,100981.78
2019-03-26T03:43:15.644Z,101003.76
2019-03-26T03:43:46.833Z,100997.17
2019-03-26T03:44:18.045Z,100997.17
2019-03-26T03:44:49.226Z,100986.20
2019-03-26T03:45:27.197Z,100998.70
2019-03-26T03:45:58.380Z,101001.63
2019-03-26T03:46:29.620Z,100998.44
2019-03-26T03:47:00.850Z,100985.80
2019-03-26T03:47:32.046Z,100992.19
2019-03-26T03:48:03.243Z,100989.43
2019-03-26T03:48:34.421Z,100989.43
2019-03-26T03:49:05.585Z,100990.86
2019-03-26T03:49:36.797Z,100989.73
2019-03-26T03:50:07.981Z,100994.52
2019-03-26T03:50:39.162Z,100993.05
2019-03-26T03:51:10.407Z,100992.95
2019-03-26T03:51:42.263Z,101003.03
2019-03-26T03:52:13.486Z,100981.58
2019-03-26T03:52:44.639Z,100994.25
2019-03-26T03:53:15.950Z,100994.25
2019-03-26T03:53:47.107Z,100998.64
2019-03-26T03:54:18.398Z,100974.66
2019-03-26T03:54:49.542Z,101004.72
2019-03-26T03:55:20.752Z,101015.40
2019-03-26T03:55:52.525Z,101015.40
2019-03-26T03:56:24.231Z,101012.23
2019-03-26T03:56:55.780Z,100996.17
2019-03-26T03:57:27.109Z,100995.91
2019-03-26T03:57:58.760Z,100997.14
2019-03-26T03:58:31.266Z,100999.13
2019-03-26T03:59:02.433Z,100999.93
2019-03-26T03:59:33.731Z,100994.67
2019-03-26T04:00:19.010Z,100991.41
2019-03-26T04:00:50.238Z,100991.41
2019-03-26T04:01:21.420Z,100990.81
2019-03-26T04:01:52.733Z,100991.71
2019-03-26T04:02:24.184Z,100988.22
2019-03-26T04:02:55.410Z,100988.72
2019-03-26T04:03:26.636Z,100989.72
2019-03-26T04:03:57.901Z,100984.14
2019-03-26T04:04:29.361Z,100982.34
2019-03-26T04:05:00.641Z,100987.13
2019-03-26T04:05:32.552Z,100998.80
2019-03-26T04:06:09.385Z,100983.23
2019-03-26T04:06:36.831Z,100987.13
2019-03-26T04:07:08.068Z,100987.52
2019-03-26T04:07:39.290Z,100994.57
2019-03-26T04:08:10.524Z,100985.10
2019-03-26T04:08:41.745Z,100985.10
2019-03-26T04:09:12.979Z,100984.30
2019-03-26T04:09:44.211Z,100973.93
2019-03-26T04:10:15.420Z,100984.80
2019-03-26T04:10:46.649Z,100978.22
2019-03-26T04:11:17.881Z,100981.98
2019-03-26T04:11:49.082Z,100984.34
2019-03-26T04:12:20.332Z,100985.23
2019-03-26T04:12:51.665Z,100985.23
2019-03-26T04:13:22.903Z,100987.03
2019-03-26T04:13:54.273Z,100983.14
2019-03-26T04:14:25.500Z,100979.72
2019-03-26T04:14:56.881Z,100979.72
2019-03-26T04:15:28.109Z,100979.72
2019-03-26T04:15:59.343Z,100983.71
2019-03-26T04:16:30.555Z,100980.62
2019-03-26T04:17:01.705Z,100979.42
2019-03-26T04:17:32.920Z,100981.12
2019-03-26T04:18:04.112Z,100983.81
2019-03-26T04:18:35.323Z,100979.82
2019-03-26T04:19:06.672Z,100979.48
2019-03-26T04:19:38.003Z,100978.69
2019-03-26T04:20:09.220Z,100983.98
2019-03-26T04:20:40.434Z,100978.39
2019-03-26T04:21:11.580Z,100981.55
2019-03-26T04:21:42.985Z,100976.36
2019-03-26T04:22:14.142Z,100980.75
2019-03-26T04:22:45.377Z,100984.14
2019-03-26T04:23:16.515Z,100983.34
2019-03-26T04:23:47.724Z,100985.14
2019-03-26T04:24:18.890Z,100987.34
2019-03-26T04:24:50.100Z,100990.89
2019-03-26T04:25:21.358Z,100979.22
2019-03-26T04:25:52.626Z,100985.30
2019-03-26T04:26:23.999Z,100992.19
2019-03-26T04:26:55.200Z,100992.19
2019-03-26T04:27:26.501Z,100987.80
2019-03-26T04:27:57.717Z,100986.60
2019-03-26T04:28:28.873Z,100984.01
2019-03-26T04:29:00.076Z,100987.90
2019-03-26T04:29:31.235Z,100981.91
2019-03-26T04:30:06.748Z,100991.79
2019-03-26T04:30:38.003Z,100995.78
2019-03-26T04:31:09.207Z,100979.72
2019-03-26T04:31:40.388Z,100981.91
2019-03-26T04:32:11.629Z,100975.83
2019-03-26T04:32:42.952Z,100980.22
2019-03-26T04:33:14.185Z,100994.05
2019-03-26T04:33:45.414Z,100989.70
2019-03-26T04:34:16.731Z,100977.42
2019-03-26T04:34:47.996Z,100978.26
2019-03-26T04:35:19.252Z,100981.71
2019-03-26T04:35:50.471Z,100984.31
2019-03-26T04:36:26.003Z,100979.63
2019-03-26T04:36:54.808Z,100973.53
2019-03-26T04:37:25.981Z,100969.74
2019-03-26T04:37:57.190Z,100969.74
2019-03-26T04:38:28.363Z,100971.03
2019-03-26T04:38:59.588Z,100970.64
2019-03-26T04:39:30.747Z,100965.05
2019-03-26T04:40:01.994Z,100972.50
2019-03-26T04:40:33.225Z,100972.50
2019-03-26T04:41:04.439Z,100968.61
2019-03-26T04:41:35.690Z,100967.81
2019-03-26T04:42:06.862Z,100967.81
2019-03-26T04:42:38.036Z,100968.20
2019-03-26T04:43:09.228Z,100960.42
2019-03-26T04:43:40.404Z,100960.42
2019-03-26T04:44:11.589Z,100957.53
2019-03-26T04:44:42.761Z,100957.53
2019-03-26T04:45:13.970Z,100966.21
2019-03-26T04:45:45.127Z,100957.53
2019-03-26T04:46:16.328Z,100964.08
2019-03-26T04:46:47.527Z,100965.78
2019-03-26T04:47:18.735Z,100965.78
2019-03-26T04:47:49.988Z,100961.02
2019-03-26T04:48:21.216Z,100959.23
2019-03-26T04:48:52.398Z,100955.34
2019-03-26T04:49:24.683Z,100951.45
2019-03-26T04:49:55.946Z,100951.75
2019-03-26T04:50:27.200Z,100955.23
2019-03-26T04:50:58.388Z,100960.03
2019-03-26T04:51:29.981Z,100960.03
2019-03-26T04:52:01.159Z,100957.53
2019-03-26T04:52:32.408Z,100963.19
2019-03-26T04:53:03.613Z,100959.30
2019-03-26T04:53:34.853Z,100961.09
2019-03-26T04:54:06.086Z,100962.72
2019-03-26T04:54:37.317Z,100964.98
2019-03-26T04:55:08.553Z,100963.19
2019-03-26T04:55:39.779Z,100963.19
2019-03-26T04:56:11.002Z,100946.23
2019-03-26T04:56:42.252Z,100956.70
2019-03-26T04:57:13.467Z,100962.48
2019-03-26T04:57:44.742Z,100964.28
2019-03-26T04:58:15.948Z,100964.28
2019-03-26T04:58:47.201Z,100963.38
2019-03-26T04:59:18.404Z,100942.91
2019-03-26T04:59:49.579Z,100951.70
2019-03-26T05:00:20.789Z,100951.70
2019-03-26T05:00:51.964Z,100950.41
2019-03-26T05:01:23.545Z,100961.25
2019-03-26T05:01:54.709Z,100968.63
2019-03-26T05:02:25.918Z,100959.49
2019-03-26T05:02:57.116Z,100965.97
2019-03-26T05:03:28.347Z,100963.38
2019-03-26T05:03:59.488Z,100956.30
2019-03-26T05:04:30.720Z,100964.18
2019-03-26T05:05:01.988Z,100955.10
2019-03-26T05:05:33.184Z,100955.10
2019-03-26T05:06:05.434Z,100962.48
2019-03-26T05:06:38.137Z,100959.09
2019-03-26T05:07:09.612Z,100956.06
2019-03-26T05:07:40.867Z,100957.86
2019-03-26T05:08:12.100Z,100957.86
2019-03-26T05:08:43.350Z,100949.65
2019-03-26T05:09:14.588Z,100949.65
2019-03-26T05:09:45.812Z,100964.44
2019-03-26T05:10:17.046Z,100961.52
2019-03-26T05:10:49.313Z,100963.70
2019-03-26T05:11:20.706Z,100963.70
2019-03-26T05:11:51.936Z,100965.00
2019-03-26T05:12:23.425Z,100960.02
2019-03-26T05:12:54.588Z,100971.35
2019-03-26T05:13:25.870Z,100966.16
2019-03-26T05:13:57.052Z,100965.36
2019-03-26T05:14:28.261Z,100968.75
2019-03-26T05:14:59.427Z,100969.55
2019-03-26T05:15:30.648Z,100969.55
2019-03-26T05:16:01.806Z,100975.24
2019-03-26T05:16:33.019Z,100971.84
2019-03-26T05:17:04.174Z,100968.20
2019-03-26T05:17:35.385Z,100968.20
2019-03-26T05:18:06.552Z,100969.25
2019-03-26T05:18:37.748Z,100969.25
2019-03-26T05:19:08.928Z,100981.42
2019-03-26T05:19:40.106Z,100968.45
2019-03-26T05:20:11.261Z,100968.45
2019-03-26T05:20:42.433Z,100967.62
2019-03-26T05:21:13.592Z,100967.62
2019-03-26T05:21:44.753Z,100968.92
2019-03-26T05:22:24.125Z,100968.92
2019-03-26T05:22:49.027Z,100972.01
2019-03-26T05:23:20.169Z,100965.52
2019-03-26T05:23:52.070Z,100974.61
2019-03-26T05:24:24.430Z,100974.61
2019-03-26T05:24:55.636Z,100977.20
2019-03-26T05:25:26.805Z,100969.41
2019-03-26T05:25:58.016Z,100969.41
2019-03-26T05:26:29.174Z,100975.60
2019-03-26T05:27:00.378Z,100979.95
2019-03-26T05:27:44.837Z,100974.77
2019-03-26T05:28:06.452Z,100970.88
2019-03-26T05:28:37.637Z,100963.98
2019-03-26T05:29:08.817Z,100978.76
2019-03-26T05:29:39.998Z,100968.77
2019-03-26T05:30:11.170Z,100971.38
2019-03-26T05:30:42.359Z,100974.47
2019-03-26T05:31:13.545Z,100974.47
2019-03-26T05:31:44.719Z,100976.16
2019-03-26T05:32:15.879Z,100973.97
2019-03-26T05:32:47.061Z,100973.47
2019-03-26T05:33:18.239Z,100973.07
2019-03-26T05:33:49.425Z,100964.39
2019-03-26T05:34:20.599Z,100974.86
2019-03-26T05:34:51.769Z,100956.30
2019-03-26T05:35:22.943Z,100961.09
2019-03-26T05:35:54.125Z,100972.67
2019-03-26T05:36:25.301Z,100963.59
2019-03-26T05:36:57.502Z,100955.73
2019-03-26T05:37:28.705Z,100955.73
2019-03-26T05:37:59.897Z,100954.84
2019-03-26T05:38:31.075Z,100952.31
2019-03-26T05:39:04.488Z,100952.31
2019-03-26T05:39:35.666Z,100951.41
2019-03-26T05:40:07.245Z,100946.41
2019-03-26T05:40:38.438Z,100950.77
2019-03-26T05:41:10.779Z,100951.27
2019-03-26T05:41:41.992Z,100954.76
2019-03-26T05:42:13.158Z,100953.36
2019-03-26T05:42:44.376Z,100948.27
2019-03-26T05:43:15.554Z,100945.28
2019-03-26T05:43:46.752Z,100945.28
2019-03-26T05:44:17.950Z,100949.27
2019-03-26T05:44:49.180Z,100948.37
2019-03-26T05:45:20.344Z,100945.77
2019-03-26T05:45:51.578Z,100949.42
2019-03-26T05:46:22.714Z,100942.37
2019-03-26T05:46:54.355Z,100950.62
2019-03-26T05:47:25.711Z,100952.02
2019-03-26T05:47:57.021Z,100952.02
2019-03-26T05:48:28.165Z,100949.42
2019-03-26T05:48:59.383Z,100942.94
2019-03-26T05:49:30.580Z,100942.94
2019-03-26T05:50:04.066Z,100940.74
2019-03-26T05:50:35.255Z,100942.53
2019-03-26T05:51:06.469Z,100940.74
2019-03-26T05:51:37.671Z,100943.33
2019-03-26T05:52:08.847Z,100945.13
2019-03-26T05:52:40.035Z,100941.73
2019-03-26T05:53:11.231Z,100944.80
2019-03-26T05:53:42.410Z,100943.19
2019-03-26T05:54:13.634Z,100943.19
2019-03-26T05:54:44.803Z,100934.01
2019-03-26T05:55:16.023Z,100934.01
2019-03-26T05:55:47.176Z,100947.48
2019-03-26T05:56:18.385Z,100942.79
2019-03-26T05:56:49.524Z,100935.00
2019-03-26T05:57:20.748Z,100925.92
2019-03-26T05:57:51.940Z,100934.27
2019-03-26T05:58:23.145Z,100933.06